TAM8070 SBGR-EDDF
Flight info
| Callsign | TAM8070 |
|---|---|
| Flight time | N/A |
| Altitude | 31000 |
| Route | VUMEV DCT UTPIN DCT UBKIS DCT OPLUT DCT UGIBI DCT UTLON DCT EDVIR DCT EDNOB/N0503F330 DCT BONF DCT ASGIK DCT ANLET DCT VACAR DCT NTL DCT FEMUR DCT INTOL DCT ORARO DCT TASIL DCT ASEBA DCT SADBA DCT VOMER/N0494F350 DCT POMAT DCT DIMKI/N0494F340 DCT ISOKA DCT LIMAL/N0483F360 DCT UDATI DCT LOMAS DCT VASTO DCT DIMSA DCT IBLIV DCT SUNID DCT AKUDA DCT IDLIP DCT ROSAL DCT EKRIS DCT RUKER DCT MANCO DCT GARVU DCT ERAKI DCT LACOU/N0480F380 DCT BELPA DCT IBNIT DCT ROBIR DCT HORQO/N0476F370 DCT PABLA DCT LAMGO DCT KISEK SPESA5C |
| Aircraft | B77W/H-SDE1E2E3FGHIJ2J3J4J5M1RWXY/LB1D1 |
Departure
| Time | 2026-04-30 10:11 |
|---|---|
| Airport | São Paulo/Guarulhos–Governor André Franco Montoro International Airport (SBGR) |
Arrival
| Time | N/A |
|---|---|
| Airport | Frankfurt Main Airport (EDDF) |
| Time | Latitude | Longitude | Altitude | Speed | Heading |
|---|---|---|---|---|---|
| 2026-04-30 09:47 | -23.42675 | -46.47288 | 2475 ft | 0 kts | 253° |
| 2026-04-30 09:59 | -23.42662 | -46.47242 | 2477 ft | 4 kts | 253° |
| 2026-04-30 09:59 | -23.42633 | -46.47196 | 2475 ft | 4 kts | 201° |
| 2026-04-30 10:00 | -23.42588 | -46.47199 | 2475 ft | 4 kts | 163° |
| 2026-04-30 10:00 | -23.42562 | -46.47208 | 2473 ft | 3 kts | 163° |
| 2026-04-30 10:01 | -23.42557 | -46.47209 | 2473 ft | 0 kts | 163° |
| 2026-04-30 10:03 | -23.42566 | -46.47207 | 2473 ft | 6 kts | 163° |
| 2026-04-30 10:03 | -23.42622 | -46.47189 | 2474 ft | 9 kts | 164° |
| 2026-04-30 10:03 | -23.42679 | -46.47171 | 2476 ft | 9 kts | 163° |
| 2026-04-30 10:03 | -23.42737 | -46.47152 | 2476 ft | 9 kts | 162° |
| 2026-04-30 10:04 | -23.42794 | -46.47133 | 2475 ft | 9 kts | 166° |
| 2026-04-30 10:04 | -23.42845 | -46.47160 | 2478 ft | 9 kts | 233° |
| 2026-04-30 10:04 | -23.42869 | -46.47221 | 2475 ft | 9 kts | 251° |
| 2026-04-30 10:04 | -23.42888 | -46.47284 | 2476 ft | 9 kts | 252° |
| 2026-04-30 10:05 | -23.42906 | -46.47347 | 2473 ft | 9 kts | 252° |
| 2026-04-30 10:05 | -23.42924 | -46.47409 | 2478 ft | 9 kts | 253° |
| 2026-04-30 10:05 | -23.42940 | -46.47473 | 2478 ft | 9 kts | 256° |
| 2026-04-30 10:05 | -23.42954 | -46.47538 | 2474 ft | 9 kts | 257° |
| 2026-04-30 10:06 | -23.42972 | -46.47602 | 2472 ft | 9 kts | 253° |
| 2026-04-30 10:06 | -23.42991 | -46.47670 | 2476 ft | 9 kts | 253° |
| 2026-04-30 10:06 | -23.43009 | -46.47739 | 2475 ft | 9 kts | 254° |
| 2026-04-30 10:06 | -23.43027 | -46.47808 | 2475 ft | 9 kts | 255° |
| 2026-04-30 10:07 | -23.43044 | -46.47877 | 2477 ft | 9 kts | 255° |
| 2026-04-30 10:07 | -23.43064 | -46.47944 | 2475 ft | 9 kts | 249° |
| 2026-04-30 10:07 | -23.43086 | -46.48013 | 2475 ft | 10 kts | 253° |
| 2026-04-30 10:07 | -23.43105 | -46.48084 | 2476 ft | 10 kts | 253° |
| 2026-04-30 10:08 | -23.43124 | -46.48154 | 2476 ft | 10 kts | 254° |
| 2026-04-30 10:08 | -23.43142 | -46.48225 | 2475 ft | 10 kts | 255° |
| 2026-04-30 10:08 | -23.43160 | -46.48297 | 2475 ft | 10 kts | 255° |
| 2026-04-30 10:08 | -23.43180 | -46.48367 | 2474 ft | 10 kts | 241° |
| 2026-04-30 10:09 | -23.43240 | -46.48382 | 2477 ft | 10 kts | 169° |
| 2026-04-30 10:09 | -23.43307 | -46.48365 | 2479 ft | 10 kts | 160° |
| 2026-04-30 10:09 | -23.43371 | -46.48341 | 2478 ft | 10 kts | 162° |
| 2026-04-30 10:09 | -23.43411 | -46.48288 | 2479 ft | 10 kts | 93° |
| 2026-04-30 10:10 | -23.43385 | -46.48174 | 2479 ft | 30 kts | 73° |
| 2026-04-30 10:10 | -23.43259 | -46.47704 | 2475 ft | 99 kts | 73° |
| 2026-04-30 10:10 | -23.43002 | -46.46763 | 2476 ft | 159 kts | 73° |
| 2026-04-30 10:10 | -23.42645 | -46.45439 | 2478 ft | 201 kts | 75° |
| 2026-04-30 10:11 | -23.42224 | -46.43928 | 2770 ft | 213 kts | 73° |
| 2026-04-30 10:11 | -23.41770 | -46.42378 | 3296 ft | 217 kts | 71° |
| 2026-04-30 10:11 | -23.41305 | -46.40814 | 3858 ft | 220 kts | 70° |
| 2026-04-30 10:11 | -23.40830 | -46.39210 | 4193 ft | 234 kts | 70° |
| 2026-04-30 10:12 | -23.40310 | -46.37454 | 4425 ft | 250 kts | 70° |
| 2026-04-30 10:12 | -23.39702 | -46.35628 | 4696 ft | 262 kts | 60° |
| 2026-04-30 10:12 | -23.38706 | -46.33920 | 5105 ft | 271 kts | 54° |
| 2026-04-30 10:12 | -23.37648 | -46.32188 | 5607 ft | 278 kts | 55° |
| 2026-04-30 10:13 | -23.36592 | -46.30400 | 6162 ft | 283 kts | 55° |
| 2026-04-30 10:13 | -23.35533 | -46.28581 | 6774 ft | 285 kts | 55° |
| 2026-04-30 10:13 | -23.34483 | -46.26773 | 7360 ft | 288 kts | 56° |
| 2026-04-30 10:13 | -23.33411 | -46.24923 | 7938 ft | 290 kts | 56° |
| 2026-04-30 10:14 | -23.32325 | -46.23045 | 8496 ft | 294 kts | 56° |
| 2026-04-30 10:14 | -23.31229 | -46.21160 | 9093 ft | 296 kts | 56° |
| 2026-04-30 10:14 | -23.29009 | -46.17336 | 10196 ft | 302 kts | 56° |
| 2026-04-30 10:15 | -23.27865 | -46.15366 | 10497 ft | 317 kts | 56° |
| 2026-04-30 10:15 | -23.26651 | -46.13276 | 10615 ft | 336 kts | 57° |
| 2026-04-30 10:15 | -23.25385 | -46.11097 | 10775 ft | 355 kts | 57° |
| 2026-04-30 10:15 | -23.24029 | -46.08762 | 10922 ft | 374 kts | 57° |
| 2026-04-30 10:16 | -23.22591 | -46.06354 | 11229 ft | 384 kts | 52° |
| 2026-04-30 10:16 | -23.20714 | -46.04263 | 11636 ft | 390 kts | 35° |
| 2026-04-30 10:16 | -23.18368 | -46.02780 | 12237 ft | 392 kts | 20° |
| 2026-04-30 10:17 | -23.13170 | -46.00928 | 13463 ft | 397 kts | 12° |
| 2026-04-30 10:17 | -23.07681 | -45.99988 | 14616 ft | 403 kts | 4° |
| 2026-04-30 10:17 | -23.04883 | -45.99671 | 15210 ft | 406 kts | 4° |
| 2026-04-30 10:18 | -23.02105 | -45.99345 | 15798 ft | 408 kts | 3° |
| 2026-04-30 10:18 | -22.99273 | -45.99004 | 16365 ft | 411 kts | 3° |
| 2026-04-30 10:18 | -22.96424 | -45.98654 | 16932 ft | 414 kts | 3° |
| 2026-04-30 10:19 | -22.90670 | -45.97787 | 17955 ft | 425 kts | 11° |
| 2026-04-30 10:19 | -22.87858 | -45.96709 | 18463 ft | 433 kts | 21° |
| 2026-04-30 10:19 | -22.85208 | -45.95124 | 18965 ft | 438 kts | 31° |
| 2026-04-30 10:19 | -22.82728 | -45.93205 | 19457 ft | 441 kts | 32° |
| 2026-04-30 10:20 | -22.80277 | -45.91259 | 19959 ft | 442 kts | 32° |
| 2026-04-30 10:20 | -22.75296 | -45.87293 | 20947 ft | 446 kts | 32° |
| 2026-04-30 10:20 | -22.72779 | -45.85308 | 21403 ft | 449 kts | 31° |
| 2026-04-30 10:21 | -22.70248 | -45.83321 | 21909 ft | 451 kts | 31° |
| 2026-04-30 10:21 | -22.67698 | -45.81328 | 22388 ft | 453 kts | 31° |
| 2026-04-30 10:21 | -22.65134 | -45.79330 | 22852 ft | 455 kts | 31° |
| 2026-04-30 10:21 | -22.62554 | -45.77321 | 23321 ft | 457 kts | 31° |
| 2026-04-30 10:22 | -22.60004 | -45.75339 | 23779 ft | 458 kts | 30° |
| 2026-04-30 10:22 | -22.57411 | -45.73322 | 24128 ft | 460 kts | 30° |
| 2026-04-30 10:22 | -22.54805 | -45.71297 | 24439 ft | 464 kts | 30° |
| 2026-04-30 10:22 | -22.52176 | -45.69258 | 24766 ft | 466 kts | 31° |
| 2026-04-30 10:23 | -22.49531 | -45.67208 | 25099 ft | 469 kts | 31° |
| 2026-04-30 10:23 | -22.46878 | -45.65151 | 25420 ft | 471 kts | 31° |
| 2026-04-30 10:23 | -22.44203 | -45.63079 | 25748 ft | 474 kts | 31° |
| 2026-04-30 10:23 | -22.41517 | -45.60997 | 26051 ft | 477 kts | 31° |
| 2026-04-30 10:24 | -22.38853 | -45.58934 | 26346 ft | 479 kts | 31° |
| 2026-04-30 10:24 | -22.36144 | -45.56835 | 26659 ft | 480 kts | 31° |
| 2026-04-30 10:24 | -22.33417 | -45.54725 | 26921 ft | 484 kts | 31° |
| 2026-04-30 10:24 | -22.30671 | -45.52599 | 27193 ft | 487 kts | 31° |
| 2026-04-30 10:25 | -22.27911 | -45.50463 | 27514 ft | 489 kts | 31° |
| 2026-04-30 10:25 | -22.25140 | -45.48321 | 27780 ft | 492 kts | 31° |
| 2026-04-30 10:25 | -22.22349 | -45.46166 | 28039 ft | 494 kts | 31° |
| 2026-04-30 10:25 | -22.19548 | -45.44005 | 28318 ft | 496 kts | 31° |
| 2026-04-30 10:26 | -22.16775 | -45.41865 | 28570 ft | 498 kts | 31° |
| 2026-04-30 10:26 | -22.13949 | -45.39684 | 28824 ft | 501 kts | 31° |
| 2026-04-30 10:26 | -22.11112 | -45.37497 | 29071 ft | 503 kts | 31° |
| 2026-04-30 10:26 | -22.08265 | -45.35305 | 29323 ft | 504 kts | 31° |
| 2026-04-30 10:27 | -22.05409 | -45.33104 | 29525 ft | 506 kts | 31° |
| 2026-04-30 10:27 | -22.02538 | -45.30892 | 29733 ft | 508 kts | 31° |
| 2026-04-30 10:27 | -21.99661 | -45.28679 | 30000 ft | 508 kts | 31° |
| 2026-04-30 10:27 | -21.96785 | -45.26469 | 30295 ft | 508 kts | 31° |
| 2026-04-30 10:28 | -21.93912 | -45.24261 | 30569 ft | 507 kts | 31° |
| 2026-04-30 10:28 | -21.91077 | -45.22082 | 30809 ft | 507 kts | 31° |
| 2026-04-30 10:28 | -21.88208 | -45.19879 | 31057 ft | 508 kts | 31° |
| 2026-04-30 10:28 | -21.85326 | -45.17669 | 31068 ft | 509 kts | 31° |
| 2026-04-30 10:29 | -21.79577 | -45.13258 | 31094 ft | 505 kts | 31° |
| 2026-04-30 10:29 | -21.73869 | -45.08884 | 31103 ft | 503 kts | 31° |
| 2026-04-30 10:30 | -21.68215 | -45.04558 | 31107 ft | 502 kts | 31° |
| 2026-04-30 10:30 | -21.62520 | -45.00206 | 31108 ft | 503 kts | 31° |
| 2026-04-30 10:31 | -21.56814 | -44.95848 | 31100 ft | 504 kts | 31° |
| 2026-04-30 10:31 | -21.51090 | -44.91480 | 31109 ft | 505 kts | 31° |
| 2026-04-30 10:32 | -21.45356 | -44.87112 | 31095 ft | 506 kts | 31° |
| 2026-04-30 10:32 | -21.39655 | -44.82768 | 31091 ft | 506 kts | 31° |
| 2026-04-30 10:33 | -21.33907 | -44.78393 | 31104 ft | 507 kts | 31° |
| 2026-04-30 10:33 | -21.28152 | -44.74019 | 31105 ft | 507 kts | 31° |
| 2026-04-30 10:34 | -21.22393 | -44.69645 | 31091 ft | 507 kts | 31° |
| 2026-04-30 10:34 | -21.16679 | -44.65293 | 31103 ft | 507 kts | 32° |
| 2026-04-30 10:35 | -21.10954 | -44.60866 | 31102 ft | 507 kts | 32° |
| 2026-04-30 10:35 | -21.05238 | -44.56437 | 31110 ft | 507 kts | 32° |
| 2026-04-30 10:36 | -20.99520 | -44.52020 | 31106 ft | 507 kts | 32° |
| 2026-04-30 10:36 | -20.93842 | -44.47643 | 31109 ft | 506 kts | 32° |
| 2026-04-30 10:37 | -20.88127 | -44.43243 | 31111 ft | 506 kts | 32° |
| 2026-04-30 10:37 | -20.82409 | -44.38845 | 31105 ft | 506 kts | 32° |
| 2026-04-30 10:38 | -20.76698 | -44.34457 | 31118 ft | 506 kts | 32° |
| 2026-04-30 10:38 | -20.71947 | -44.30809 | 31114 ft | 506 kts | 32° |
| 2026-04-30 10:39 | -20.65307 | -44.25715 | 31110 ft | 506 kts | 32° |
| 2026-04-30 10:39 | -20.59598 | -44.21340 | 31125 ft | 505 kts | 32° |
| 2026-04-30 10:40 | -20.54848 | -44.17704 | 31125 ft | 505 kts | 32° |
| 2026-04-30 10:40 | -20.49134 | -44.13332 | 31130 ft | 505 kts | 32° |
| 2026-04-30 10:41 | -20.43420 | -44.08965 | 31119 ft | 505 kts | 32° |
| 2026-04-30 10:41 | -20.37704 | -44.04600 | 31126 ft | 505 kts | 32° |
| 2026-04-30 10:42 | -20.32028 | -44.00269 | 31125 ft | 506 kts | 32° |
| 2026-04-30 10:42 | -20.26303 | -43.95907 | 31125 ft | 506 kts | 32° |
| 2026-04-30 10:43 | -20.20579 | -43.91548 | 31135 ft | 506 kts | 32° |
| 2026-04-30 10:43 | -20.14893 | -43.87222 | 31139 ft | 506 kts | 32° |
| 2026-04-30 10:44 | -20.09171 | -43.82873 | 31130 ft | 506 kts | 32° |
| 2026-04-30 10:44 | -20.03450 | -43.78528 | 31131 ft | 505 kts | 33° |
| 2026-04-30 10:45 | -19.97730 | -43.74189 | 31126 ft | 505 kts | 33° |
| 2026-04-30 10:45 | -19.92015 | -43.69856 | 31119 ft | 505 kts | 33° |
| 2026-04-30 10:46 | -19.86339 | -43.65557 | 31118 ft | 504 kts | 33° |
| 2026-04-30 10:46 | -19.80626 | -43.61234 | 31117 ft | 504 kts | 33° |
| 2026-04-30 10:47 | -19.74916 | -43.56916 | 31122 ft | 504 kts | 33° |
| 2026-04-30 10:47 | -19.69203 | -43.52601 | 31124 ft | 504 kts | 33° |
| 2026-04-30 10:48 | -19.63521 | -43.48323 | 31124 ft | 504 kts | 33° |
| 2026-04-30 10:48 | -19.57798 | -43.44023 | 31122 ft | 504 kts | 33° |
| 2026-04-30 10:49 | -19.52075 | -43.39722 | 31121 ft | 505 kts | 33° |
| 2026-04-30 10:49 | -19.46343 | -43.35419 | 31132 ft | 505 kts | 33° |
| 2026-04-30 10:50 | -19.40608 | -43.31115 | 31112 ft | 505 kts | 33° |
| 2026-04-30 10:50 | -19.34914 | -43.26847 | 31113 ft | 505 kts | 33° |
| 2026-04-30 10:51 | -19.29178 | -43.22551 | 31107 ft | 505 kts | 33° |
| 2026-04-30 10:51 | -19.23443 | -43.18259 | 31107 ft | 505 kts | 33° |
| 2026-04-30 10:52 | -19.17705 | -43.13969 | 31123 ft | 505 kts | 33° |
| 2026-04-30 10:52 | -19.12007 | -43.09711 | 31099 ft | 505 kts | 33° |
| 2026-04-30 10:53 | -19.06268 | -43.05429 | 31117 ft | 504 kts | 33° |
| 2026-04-30 10:53 | -19.00533 | -43.01152 | 31103 ft | 505 kts | 33° |
| 2026-04-30 10:54 | -18.94794 | -42.96875 | 31121 ft | 505 kts | 33° |
| 2026-04-30 10:54 | -18.89093 | -42.92629 | 31103 ft | 505 kts | 33° |
| 2026-04-30 10:55 | -18.83347 | -42.88367 | 31103 ft | 505 kts | 33° |
| 2026-04-30 10:55 | -18.77572 | -42.84143 | 31117 ft | 505 kts | 33° |
| 2026-04-30 10:56 | -18.71784 | -42.79923 | 31116 ft | 506 kts | 33° |
| 2026-04-30 10:56 | -18.66002 | -42.75701 | 31121 ft | 506 kts | 33° |
| 2026-04-30 10:57 | -18.60259 | -42.71507 | 31118 ft | 506 kts | 33° |
| 2026-04-30 10:57 | -18.54475 | -42.67284 | 31099 ft | 506 kts | 33° |
| 2026-04-30 10:58 | -18.48693 | -42.63067 | 31115 ft | 505 kts | 33° |
| 2026-04-30 10:58 | -18.42910 | -42.58854 | 31092 ft | 506 kts | 34° |
| 2026-04-30 10:59 | -18.37160 | -42.54668 | 31109 ft | 506 kts | 34° |
| 2026-04-30 10:59 | -18.31361 | -42.50451 | 31102 ft | 506 kts | 34° |
| 2026-04-30 11:00 | -18.25566 | -42.46238 | 31091 ft | 507 kts | 34° |
| 2026-04-30 11:00 | -18.19761 | -42.42024 | 31097 ft | 507 kts | 34° |
| 2026-04-30 11:01 | -18.13994 | -42.37838 | 31096 ft | 507 kts | 34° |
| 2026-04-30 11:01 | -18.08187 | -42.33628 | 31097 ft | 507 kts | 34° |
| 2026-04-30 11:02 | -18.02375 | -42.29418 | 31098 ft | 507 kts | 34° |
| 2026-04-30 11:02 | -17.96559 | -42.25207 | 31100 ft | 508 kts | 34° |
| 2026-04-30 11:03 | -17.90745 | -42.21002 | 31111 ft | 508 kts | 34° |
| 2026-04-30 11:04 | -17.82061 | -42.14727 | 31109 ft | 507 kts | 34° |
| 2026-04-30 11:04 | -17.76249 | -42.10530 | 31095 ft | 507 kts | 34° |
| 2026-04-30 11:05 | -17.70370 | -42.06446 | 31114 ft | 507 kts | 32° |
| 2026-04-30 11:05 | -17.64369 | -42.02551 | 31113 ft | 508 kts | 31° |
| 2026-04-30 11:06 | -17.58397 | -41.98682 | 31109 ft | 508 kts | 32° |
| 2026-04-30 11:06 | -17.52406 | -41.94756 | 31095 ft | 508 kts | 32° |
| 2026-04-30 11:07 | -17.46433 | -41.90824 | 31109 ft | 507 kts | 32° |
| 2026-04-30 11:07 | -17.40474 | -41.86902 | 31113 ft | 506 kts | 32° |
| 2026-04-30 11:08 | -17.34554 | -41.83012 | 31099 ft | 505 kts | 32° |
| 2026-04-30 11:08 | -17.28601 | -41.79105 | 31099 ft | 505 kts | 32° |
| 2026-04-30 11:09 | -17.22646 | -41.75199 | 31110 ft | 505 kts | 32° |
| 2026-04-30 11:09 | -17.16738 | -41.71327 | 31111 ft | 505 kts | 32° |
| 2026-04-30 11:10 | -17.10787 | -41.67430 | 31107 ft | 504 kts | 32° |
| 2026-04-30 11:10 | -17.04841 | -41.63540 | 31104 ft | 504 kts | 32° |
| 2026-04-30 11:11 | -16.98899 | -41.59654 | 31097 ft | 504 kts | 32° |
| 2026-04-30 11:11 | -16.92962 | -41.55775 | 31106 ft | 504 kts | 32° |
| 2026-04-30 11:12 | -16.87060 | -41.51921 | 31087 ft | 503 kts | 32° |
| 2026-04-30 11:12 | -16.81123 | -41.48047 | 31089 ft | 504 kts | 32° |
| 2026-04-30 11:13 | -16.75183 | -41.44174 | 31103 ft | 503 kts | 32° |
| 2026-04-30 11:13 | -16.69256 | -41.40279 | 31083 ft | 503 kts | 35° |
| 2026-04-30 11:14 | -16.63622 | -41.35960 | 31087 ft | 503 kts | 38° |
| 2026-04-30 11:14 | -16.58068 | -41.31607 | 31103 ft | 503 kts | 38° |
| 2026-04-30 11:15 | -16.52463 | -41.27238 | 31102 ft | 503 kts | 37° |
| 2026-04-30 11:15 | -16.46838 | -41.22878 | 31086 ft | 504 kts | 37° |
| 2026-04-30 11:16 | -16.41209 | -41.18523 | 31082 ft | 504 kts | 37° |
| 2026-04-30 11:16 | -16.35624 | -41.14207 | 31092 ft | 504 kts | 37° |
| 2026-04-30 11:17 | -16.29994 | -41.09856 | 31086 ft | 504 kts | 37° |
| 2026-04-30 11:17 | -16.24373 | -41.05516 | 31105 ft | 503 kts | 37° |
| 2026-04-30 11:18 | -16.18751 | -41.01178 | 31089 ft | 503 kts | 37° |
| 2026-04-30 11:18 | -16.10366 | -40.94713 | 31089 ft | 502 kts | 37° |
| 2026-04-30 11:19 | -16.04757 | -40.90393 | 31089 ft | 502 kts | 37° |
| 2026-04-30 11:19 | -15.99150 | -40.86078 | 31085 ft | 502 kts | 37° |
| 2026-04-30 11:20 | -15.93540 | -40.81763 | 31086 ft | 501 kts | 37° |
| 2026-04-30 11:20 | -15.87969 | -40.77481 | 31093 ft | 501 kts | 37° |
| 2026-04-30 11:21 | -15.82363 | -40.73175 | 31091 ft | 501 kts | 37° |
| 2026-04-30 11:21 | -15.76756 | -40.68872 | 31094 ft | 501 kts | 37° |
| 2026-04-30 11:22 | -15.71150 | -40.64572 | 31088 ft | 501 kts | 37° |
| 2026-04-30 11:22 | -15.65581 | -40.60303 | 31085 ft | 501 kts | 37° |
| 2026-04-30 11:23 | -15.59975 | -40.56010 | 31079 ft | 501 kts | 37° |
| 2026-04-30 11:24 | -15.51565 | -40.49574 | 31085 ft | 501 kts | 37° |
| 2026-04-30 11:24 | -15.45956 | -40.45285 | 31076 ft | 501 kts | 37° |
| 2026-04-30 11:25 | -15.37584 | -40.38889 | 31076 ft | 501 kts | 37° |
| 2026-04-30 11:26 | -15.26363 | -40.30325 | 31072 ft | 501 kts | 37° |
| 2026-04-30 11:26 | -15.20749 | -40.26049 | 31071 ft | 501 kts | 37° |
| 2026-04-30 11:27 | -15.15168 | -40.21801 | 31070 ft | 501 kts | 37° |
| 2026-04-30 11:27 | -15.09550 | -40.17525 | 31073 ft | 501 kts | 37° |
| 2026-04-30 11:28 | -15.01116 | -40.11109 | 31063 ft | 502 kts | 37° |
| 2026-04-30 11:29 | -14.95493 | -40.06837 | 31070 ft | 502 kts | 37° |
| 2026-04-30 11:29 | -14.87092 | -40.00459 | 31068 ft | 502 kts | 37° |
| 2026-04-30 11:30 | -14.78657 | -39.94060 | 31060 ft | 501 kts | 38° |
| 2026-04-30 11:31 | -14.73032 | -39.89797 | 31057 ft | 501 kts | 37° |
| 2026-04-30 11:31 | -14.67445 | -39.85565 | 31054 ft | 501 kts | 37° |
| 2026-04-30 11:32 | -14.61824 | -39.81310 | 31051 ft | 501 kts | 37° |
| 2026-04-30 11:32 | -14.56205 | -39.77060 | 31053 ft | 501 kts | 38° |
| 2026-04-30 11:33 | -14.47782 | -39.70694 | 31045 ft | 500 kts | 38° |
| 2026-04-30 11:33 | -14.42207 | -39.66482 | 31049 ft | 500 kts | 38° |
| 2026-04-30 11:34 | -14.36594 | -39.62244 | 31042 ft | 500 kts | 38° |
| 2026-04-30 11:34 | -14.30964 | -39.58030 | 31039 ft | 500 kts | 35° |
| 2026-04-30 11:35 | -14.25077 | -39.54198 | 31038 ft | 501 kts | 33° |
| 2026-04-30 11:35 | -14.19149 | -39.50427 | 31034 ft | 501 kts | 33° |
| 2026-04-30 11:36 | -14.13267 | -39.46669 | 31034 ft | 501 kts | 33° |
| 2026-04-30 11:36 | -14.07359 | -39.42874 | 31034 ft | 501 kts | 33° |
| 2026-04-30 11:37 | -14.01447 | -39.39073 | 31031 ft | 501 kts | 33° |
| 2026-04-30 11:37 | -13.95536 | -39.35274 | 31027 ft | 501 kts | 33° |
| 2026-04-30 11:38 | -13.89662 | -39.31504 | 31032 ft | 501 kts | 33° |
| 2026-04-30 11:38 | -13.83745 | -39.27710 | 31029 ft | 501 kts | 33° |
| 2026-04-30 11:39 | -13.77826 | -39.23916 | 31028 ft | 501 kts | 33° |
| 2026-04-30 11:39 | -13.71905 | -39.20122 | 31017 ft | 501 kts | 33° |
| 2026-04-30 11:40 | -13.66022 | -39.16356 | 31018 ft | 501 kts | 33° |
| 2026-04-30 11:40 | -13.60099 | -39.12566 | 31020 ft | 501 kts | 33° |
| 2026-04-30 11:41 | -13.54175 | -39.08778 | 31015 ft | 501 kts | 33° |
| 2026-04-30 11:41 | -13.48254 | -39.04993 | 31014 ft | 501 kts | 33° |
| 2026-04-30 11:42 | -13.42369 | -39.01234 | 31010 ft | 501 kts | 33° |
| 2026-04-30 11:42 | -13.36444 | -38.97452 | 31007 ft | 501 kts | 33° |
| 2026-04-30 11:43 | -13.30519 | -38.93672 | 31002 ft | 501 kts | 33° |
| 2026-04-30 11:43 | -13.24591 | -38.89892 | 31003 ft | 501 kts | 33° |
| 2026-04-30 11:44 | -13.18664 | -38.86115 | 31003 ft | 502 kts | 33° |
| 2026-04-30 11:44 | -13.12774 | -38.82364 | 31003 ft | 502 kts | 33° |
| 2026-04-30 11:45 | -13.06842 | -38.78588 | 31003 ft | 502 kts | 33° |
| 2026-04-30 11:45 | -13.00903 | -38.74811 | 31004 ft | 502 kts | 33° |
| 2026-04-30 11:46 | -12.95007 | -38.71061 | 31000 ft | 502 kts | 33° |
| 2026-04-30 11:46 | -12.89072 | -38.67290 | 31000 ft | 502 kts | 33° |
| 2026-04-30 11:47 | -12.83132 | -38.63517 | 31000 ft | 502 kts | 33° |
| 2026-04-30 11:47 | -12.77198 | -38.59751 | 31000 ft | 502 kts | 33° |
| 2026-04-30 11:48 | -12.71262 | -38.55984 | 31000 ft | 502 kts | 33° |
| 2026-04-30 11:48 | -12.65363 | -38.52243 | 31000 ft | 502 kts | 33° |
| 2026-04-30 11:49 | -12.59356 | -38.48598 | 30999 ft | 502 kts | 31° |
| 2026-04-30 11:49 | -12.53199 | -38.45200 | 31001 ft | 503 kts | 30° |
| 2026-04-30 11:50 | -12.47019 | -38.41822 | 31000 ft | 503 kts | 30° |
| 2026-04-30 11:50 | -12.40851 | -38.38425 | 30997 ft | 504 kts | 30° |
| 2026-04-30 11:51 | -12.34723 | -38.35034 | 30999 ft | 504 kts | 30° |
| 2026-04-30 11:51 | -12.28550 | -38.31618 | 31000 ft | 505 kts | 30° |
| 2026-04-30 11:52 | -12.22377 | -38.28204 | 30997 ft | 505 kts | 30° |
| 2026-04-30 11:52 | -12.16198 | -38.24790 | 31001 ft | 504 kts | 30° |
| 2026-04-30 11:53 | -12.10065 | -38.21403 | 30996 ft | 504 kts | 30° |
| 2026-04-30 11:53 | -12.03894 | -38.17997 | 30999 ft | 504 kts | 30° |
| 2026-04-30 11:54 | -11.97721 | -38.14593 | 30998 ft | 504 kts | 30° |
| 2026-04-30 11:54 | -11.91549 | -38.11189 | 30998 ft | 504 kts | 30° |
| 2026-04-30 11:55 | -11.85423 | -38.07813 | 30996 ft | 504 kts | 30° |
| 2026-04-30 11:55 | -11.79255 | -38.04416 | 30994 ft | 504 kts | 30° |
| 2026-04-30 11:56 | -11.73081 | -38.01017 | 30999 ft | 504 kts | 30° |
| 2026-04-30 11:56 | -11.66905 | -37.97619 | 30991 ft | 504 kts | 30° |
| 2026-04-30 11:57 | -11.60725 | -37.94219 | 30995 ft | 504 kts | 30° |
| 2026-04-30 11:57 | -11.54589 | -37.90846 | 30990 ft | 505 kts | 30° |
| 2026-04-30 11:58 | -11.48414 | -37.87453 | 30987 ft | 504 kts | 30° |
| 2026-04-30 11:58 | -11.42182 | -37.84150 | 30988 ft | 505 kts | 27° |
| 2026-04-30 11:59 | -11.35823 | -37.81096 | 30991 ft | 505 kts | 27° |
| 2026-04-30 11:59 | -11.29497 | -37.78085 | 30988 ft | 505 kts | 27° |
| 2026-04-30 12:00 | -11.23144 | -37.75014 | 30989 ft | 505 kts | 27° |
| 2026-04-30 12:00 | -11.16799 | -37.71920 | 30989 ft | 506 kts | 27° |
| 2026-04-30 12:01 | -11.10450 | -37.68822 | 30982 ft | 506 kts | 27° |
| 2026-04-30 12:01 | -11.04143 | -37.65748 | 30989 ft | 506 kts | 27° |
| 2026-04-30 12:02 | -10.97788 | -37.62654 | 30986 ft | 506 kts | 27° |
| 2026-04-30 12:02 | -10.91431 | -37.59561 | 30982 ft | 506 kts | 27° |
| 2026-04-30 12:03 | -10.81894 | -37.54924 | 30983 ft | 507 kts | 27° |
| 2026-04-30 12:04 | -10.75576 | -37.51854 | 30983 ft | 507 kts | 27° |
| 2026-04-30 12:04 | -10.69219 | -37.48766 | 30986 ft | 506 kts | 27° |
| 2026-04-30 12:05 | -10.62859 | -37.45678 | 30982 ft | 507 kts | 27° |
| 2026-04-30 12:05 | -10.56496 | -37.42589 | 30978 ft | 507 kts | 27° |
| 2026-04-30 12:06 | -10.50180 | -37.39526 | 30980 ft | 506 kts | 27° |
| 2026-04-30 12:06 | -10.43816 | -37.36441 | 30983 ft | 507 kts | 27° |
| 2026-04-30 12:07 | -10.37457 | -37.33359 | 30977 ft | 507 kts | 27° |
| 2026-04-30 12:07 | -10.31098 | -37.30278 | 30979 ft | 506 kts | 27° |
| 2026-04-30 12:08 | -10.24733 | -37.27196 | 30980 ft | 506 kts | 27° |
| 2026-04-30 12:08 | -10.18419 | -37.24139 | 30974 ft | 507 kts | 27° |
| 2026-04-30 12:09 | -10.12054 | -37.21061 | 30977 ft | 507 kts | 27° |
| 2026-04-30 12:09 | -10.05687 | -37.17982 | 30972 ft | 507 kts | 27° |
| 2026-04-30 12:10 | -9.99322 | -37.14906 | 30973 ft | 507 kts | 27° |
| 2026-04-30 12:10 | -9.92996 | -37.11849 | 30969 ft | 507 kts | 27° |
| 2026-04-30 12:11 | -9.86626 | -37.08772 | 30973 ft | 507 kts | 27° |
| 2026-04-30 12:11 | -9.80254 | -37.05695 | 30973 ft | 507 kts | 27° |
| 2026-04-30 12:12 | -9.73883 | -37.02620 | 30975 ft | 507 kts | 27° |
| 2026-04-30 12:12 | -9.67404 | -36.99769 | 30976 ft | 508 kts | 24° |
| 2026-04-30 12:13 | -9.60896 | -36.97101 | 30978 ft | 508 kts | 24° |
| 2026-04-30 12:13 | -9.54345 | -36.94418 | 30981 ft | 508 kts | 24° |
| 2026-04-30 12:14 | -9.47799 | -36.91713 | 30982 ft | 508 kts | 24° |
| 2026-04-30 12:14 | -9.41261 | -36.89001 | 30984 ft | 508 kts | 24° |
| 2026-04-30 12:15 | -9.34765 | -36.86305 | 30983 ft | 508 kts | 24° |
| 2026-04-30 12:15 | -9.28228 | -36.83595 | 30991 ft | 508 kts | 24° |
| 2026-04-30 12:16 | -9.21685 | -36.80885 | 30994 ft | 508 kts | 24° |
| 2026-04-30 12:16 | -9.15147 | -36.78177 | 30987 ft | 508 kts | 24° |
| 2026-04-30 12:17 | -9.05378 | -36.74136 | 31003 ft | 508 kts | 24° |
| 2026-04-30 12:17 | -8.98838 | -36.71430 | 30996 ft | 508 kts | 24° |
| 2026-04-30 12:18 | -8.92301 | -36.68727 | 30996 ft | 508 kts | 24° |
| 2026-04-30 12:18 | -8.85760 | -36.66024 | 30995 ft | 507 kts | 24° |
| 2026-04-30 12:19 | -8.79273 | -36.63343 | 30994 ft | 507 kts | 24° |
| 2026-04-30 12:19 | -8.72738 | -36.60644 | 30994 ft | 507 kts | 24° |
| 2026-04-30 12:20 | -8.66210 | -36.57949 | 30990 ft | 507 kts | 24° |
| 2026-04-30 12:20 | -8.59681 | -36.55255 | 30994 ft | 507 kts | 24° |
| 2026-04-30 12:21 | -8.53153 | -36.52561 | 30996 ft | 507 kts | 24° |
| 2026-04-30 12:21 | -8.46669 | -36.49887 | 30996 ft | 507 kts | 24° |
| 2026-04-30 12:22 | -8.40137 | -36.47194 | 30992 ft | 507 kts | 24° |
| 2026-04-30 12:22 | -8.33608 | -36.44504 | 30989 ft | 507 kts | 24° |
| 2026-04-30 12:23 | -8.27118 | -36.41830 | 30987 ft | 507 kts | 24° |
| 2026-04-30 12:23 | -8.20584 | -36.39140 | 30982 ft | 507 kts | 24° |
| 2026-04-30 12:24 | -8.14045 | -36.36447 | 30984 ft | 507 kts | 24° |
| 2026-04-30 12:24 | -8.07507 | -36.33757 | 30980 ft | 508 kts | 24° |
| 2026-04-30 12:25 | -8.01012 | -36.31085 | 30979 ft | 508 kts | 24° |
| 2026-04-30 12:25 | -7.94471 | -36.28396 | 30980 ft | 508 kts | 24° |
| 2026-04-30 12:26 | -7.87928 | -36.25705 | 30984 ft | 508 kts | 24° |
| 2026-04-30 12:26 | -7.81378 | -36.23013 | 30965 ft | 508 kts | 24° |
| 2026-04-30 12:27 | -7.74870 | -36.20339 | 30963 ft | 508 kts | 24° |
| 2026-04-30 12:27 | -7.68323 | -36.17650 | 30963 ft | 508 kts | 24° |
| 2026-04-30 12:28 | -7.61947 | -36.14606 | 30968 ft | 506 kts | 30° |
| 2026-04-30 12:28 | -7.55717 | -36.11284 | 30963 ft | 507 kts | 30° |
| 2026-04-30 12:29 | -7.49519 | -36.07986 | 30964 ft | 507 kts | 30° |
| 2026-04-30 12:29 | -7.43264 | -36.04688 | 30959 ft | 507 kts | 29° |
| 2026-04-30 12:30 | -7.37003 | -36.01402 | 30961 ft | 508 kts | 29° |
| 2026-04-30 12:30 | -7.30739 | -35.98116 | 30963 ft | 508 kts | 29° |
| 2026-04-30 12:31 | -7.24519 | -35.94853 | 30958 ft | 507 kts | 29° |
| 2026-04-30 12:31 | -7.18255 | -35.91566 | 30955 ft | 507 kts | 29° |
| 2026-04-30 12:32 | -7.11998 | -35.88285 | 30956 ft | 507 kts | 29° |
| 2026-04-30 12:32 | -7.05741 | -35.85003 | 30948 ft | 507 kts | 29° |
| 2026-04-30 12:33 | -6.99486 | -35.81725 | 30954 ft | 507 kts | 29° |
| 2026-04-30 12:33 | -6.93270 | -35.78468 | 30949 ft | 507 kts | 29° |
| 2026-04-30 12:34 | -6.87015 | -35.75191 | 30945 ft | 507 kts | 29° |
| 2026-04-30 12:34 | -6.80755 | -35.71913 | 30942 ft | 507 kts | 29° |
| 2026-04-30 12:35 | -6.74497 | -35.68636 | 30933 ft | 507 kts | 29° |
| 2026-04-30 12:35 | -6.68279 | -35.65381 | 30937 ft | 507 kts | 29° |
| 2026-04-30 12:36 | -6.62017 | -35.62105 | 30933 ft | 507 kts | 29° |
| 2026-04-30 12:36 | -6.55756 | -35.58830 | 30927 ft | 507 kts | 29° |
| 2026-04-30 12:37 | -6.49487 | -35.55552 | 30917 ft | 508 kts | 29° |
| 2026-04-30 12:37 | -6.43225 | -35.52278 | 30913 ft | 507 kts | 29° |
| 2026-04-30 12:38 | -6.37004 | -35.49026 | 30920 ft | 507 kts | 29° |
| 2026-04-30 12:38 | -6.30743 | -35.45755 | 30911 ft | 507 kts | 29° |
| 2026-04-30 12:39 | -6.24487 | -35.42486 | 30913 ft | 507 kts | 29° |
| 2026-04-30 12:39 | -6.18229 | -35.39218 | 30908 ft | 507 kts | 29° |
| 2026-04-30 12:40 | -6.12015 | -35.35974 | 30912 ft | 507 kts | 29° |
| 2026-04-30 12:40 | -6.05757 | -35.32707 | 30903 ft | 507 kts | 29° |
| 2026-04-30 12:41 | -5.99497 | -35.29439 | 30909 ft | 507 kts | 29° |
| 2026-04-30 12:41 | -5.93240 | -35.26174 | 30899 ft | 507 kts | 29° |
| 2026-04-30 12:42 | -5.87026 | -35.22910 | 30899 ft | 507 kts | 30° |
| 2026-04-30 12:42 | -5.80802 | -35.19573 | 30893 ft | 507 kts | 30° |
| 2026-04-30 12:43 | -5.74579 | -35.16226 | 30894 ft | 507 kts | 30° |
| 2026-04-30 12:43 | -5.68357 | -35.12890 | 30887 ft | 507 kts | 29° |
| 2026-04-30 12:44 | -5.62134 | -35.09560 | 30891 ft | 507 kts | 30° |
| 2026-04-30 12:44 | -5.55948 | -35.06252 | 30883 ft | 507 kts | 30° |
| 2026-04-30 12:45 | -5.49717 | -35.02920 | 30892 ft | 507 kts | 30° |
| 2026-04-30 12:45 | -5.43484 | -34.99587 | 30885 ft | 508 kts | 30° |
| 2026-04-30 12:46 | -5.37242 | -34.96253 | 30880 ft | 508 kts | 30° |
| 2026-04-30 12:46 | -5.31048 | -34.92942 | 30879 ft | 508 kts | 31° |
| 2026-04-30 12:47 | -5.24808 | -34.89605 | 30877 ft | 508 kts | 31° |
| 2026-04-30 12:47 | -5.18568 | -34.86272 | 30877 ft | 508 kts | 29° |
| 2026-04-30 12:48 | -5.12326 | -34.82940 | 30876 ft | 508 kts | 29° |
| 2026-04-30 12:48 | -5.06123 | -34.79628 | 30879 ft | 508 kts | 29° |
| 2026-04-30 12:49 | -4.99881 | -34.76296 | 30875 ft | 508 kts | 30° |
| 2026-04-30 12:49 | -4.93637 | -34.72964 | 30873 ft | 508 kts | 29° |
| 2026-04-30 12:50 | -4.87393 | -34.69632 | 30875 ft | 509 kts | 29° |
| 2026-04-30 12:50 | -4.81142 | -34.66297 | 30874 ft | 509 kts | 30° |
| 2026-04-30 12:51 | -4.74935 | -34.62987 | 30870 ft | 509 kts | 30° |
| 2026-04-30 12:51 | -4.68685 | -34.59652 | 30872 ft | 509 kts | 28° |
| 2026-04-30 12:52 | -4.62427 | -34.56317 | 30873 ft | 509 kts | 29° |
| 2026-04-30 12:52 | -4.56167 | -34.52981 | 30873 ft | 510 kts | 29° |
| 2026-04-30 12:53 | -4.49950 | -34.49667 | 30873 ft | 509 kts | 29° |
| 2026-04-30 12:53 | -4.43697 | -34.46335 | 30875 ft | 509 kts | 28° |
| 2026-04-30 12:54 | -4.37436 | -34.42999 | 30874 ft | 509 kts | 28° |
| 2026-04-30 12:54 | -4.31170 | -34.39662 | 30878 ft | 510 kts | 28° |
| 2026-04-30 12:55 | -4.24936 | -34.36343 | 30878 ft | 511 kts | 28° |
| 2026-04-30 12:55 | -4.18650 | -34.32996 | 30878 ft | 512 kts | 28° |
| 2026-04-30 12:56 | -4.12368 | -34.29652 | 30868 ft | 511 kts | 28° |
| 2026-04-30 12:56 | -4.06098 | -34.26315 | 30869 ft | 511 kts | 28° |
| 2026-04-30 12:57 | -3.99818 | -34.22973 | 30871 ft | 511 kts | 28° |
| 2026-04-30 12:57 | -3.93586 | -34.19657 | 30871 ft | 511 kts | 28° |
| 2026-04-30 12:58 | -3.87302 | -34.16313 | 30872 ft | 511 kts | 28° |
| 2026-04-30 12:58 | -3.81019 | -34.12971 | 30873 ft | 511 kts | 28° |
| 2026-04-30 12:59 | -3.74740 | -34.09632 | 30873 ft | 511 kts | 28° |
| 2026-04-30 12:59 | -3.68512 | -34.06319 | 30871 ft | 510 kts | 28° |
| 2026-04-30 13:00 | -3.62253 | -34.02992 | 30871 ft | 509 kts | 29° |
| 2026-04-30 13:00 | -3.55994 | -33.99671 | 30872 ft | 509 kts | 29° |
| 2026-04-30 13:01 | -3.49736 | -33.96352 | 30872 ft | 509 kts | 28° |
| 2026-04-30 13:01 | -3.43517 | -33.93052 | 30870 ft | 510 kts | 28° |
| 2026-04-30 13:02 | -3.37249 | -33.89726 | 30872 ft | 510 kts | 28° |
| 2026-04-30 13:02 | -3.30976 | -33.86399 | 30872 ft | 510 kts | 29° |
| 2026-04-30 13:03 | -3.24708 | -33.83074 | 30872 ft | 510 kts | 28° |
| 2026-04-30 13:03 | -3.19498 | -33.80310 | 30872 ft | 510 kts | 29° |
| 2026-04-30 13:04 | -3.12221 | -33.76451 | 30871 ft | 509 kts | 29° |
| 2026-04-30 13:04 | -3.05964 | -33.73134 | 30871 ft | 509 kts | 29° |
| 2026-04-30 13:05 | -2.99712 | -33.69820 | 30872 ft | 508 kts | 29° |
| 2026-04-30 13:06 | -2.90382 | -33.64874 | 30876 ft | 508 kts | 29° |
| 2026-04-30 13:06 | -2.84125 | -33.61557 | 30872 ft | 509 kts | 29° |
| 2026-04-30 13:07 | -2.77861 | -33.58237 | 30871 ft | 510 kts | 29° |
| 2026-04-30 13:07 | -2.71589 | -33.54915 | 30869 ft | 510 kts | 29° |
| 2026-04-30 13:08 | -2.65357 | -33.51613 | 30870 ft | 510 kts | 29° |
| 2026-04-30 13:08 | -2.59091 | -33.48294 | 30871 ft | 510 kts | 28° |
| 2026-04-30 13:09 | -2.52828 | -33.44976 | 30875 ft | 509 kts | 28° |
| 2026-04-30 13:09 | -2.46568 | -33.41661 | 30872 ft | 509 kts | 29° |
| 2026-04-30 13:10 | -2.40310 | -33.38347 | 30871 ft | 509 kts | 28° |
| 2026-04-30 13:10 | -2.34098 | -33.35058 | 30871 ft | 508 kts | 29° |
| 2026-04-30 13:11 | -2.27849 | -33.31749 | 30869 ft | 508 kts | 29° |
| 2026-04-30 13:11 | -2.21603 | -33.28442 | 30870 ft | 508 kts | 28° |
| 2026-04-30 13:12 | -2.15349 | -33.25131 | 30871 ft | 508 kts | 28° |
| 2026-04-30 13:12 | -2.09102 | -33.21825 | 30872 ft | 508 kts | 28° |
| 2026-04-30 13:13 | -1.99768 | -33.16885 | 30871 ft | 508 kts | 28° |
| 2026-04-30 13:14 | -1.90392 | -33.11923 | 30870 ft | 509 kts | 28° |
| 2026-04-30 13:14 | -1.82063 | -33.07516 | 30873 ft | 509 kts | 28° |
| 2026-04-30 13:15 | -1.71657 | -33.02011 | 30871 ft | 509 kts | 28° |
| 2026-04-30 13:16 | -1.65392 | -32.98697 | 30869 ft | 509 kts | 28° |
| 2026-04-30 13:16 | -1.60184 | -32.95941 | 30868 ft | 509 kts | 28° |
| 2026-04-30 13:17 | -1.50788 | -32.90971 | 30871 ft | 509 kts | 28° |
| 2026-04-30 13:18 | -1.41440 | -32.86026 | 30871 ft | 509 kts | 28° |
| 2026-04-30 13:18 | -1.32048 | -32.81059 | 30868 ft | 509 kts | 28° |
| 2026-04-30 13:19 | -1.24775 | -32.77213 | 30871 ft | 509 kts | 28° |
| 2026-04-30 13:19 | -1.18518 | -32.73902 | 30872 ft | 509 kts | 28° |
| 2026-04-30 13:20 | -1.13314 | -32.71148 | 30871 ft | 509 kts | 28° |
| 2026-04-30 13:20 | -1.07054 | -32.67836 | 30871 ft | 509 kts | 28° |
| 2026-04-30 13:21 | -1.00791 | -32.64523 | 30872 ft | 509 kts | 28° |
| 2026-04-30 13:22 | -0.91438 | -32.59575 | 30872 ft | 509 kts | 28° |
| 2026-04-30 13:22 | -0.82042 | -32.54604 | 30872 ft | 509 kts | 28° |
| 2026-04-30 13:23 | -0.72653 | -32.49638 | 30871 ft | 509 kts | 28° |
| 2026-04-30 13:24 | -0.60182 | -32.43041 | 30874 ft | 508 kts | 28° |
| 2026-04-30 13:25 | -0.47689 | -32.36433 | 30870 ft | 507 kts | 28° |
| 2026-04-30 13:26 | -0.32148 | -32.28214 | 30871 ft | 507 kts | 28° |
| 2026-04-30 13:28 | -0.16578 | -32.19979 | 30871 ft | 506 kts | 28° |
| 2026-04-30 13:28 | -0.07237 | -32.15039 | 30872 ft | 507 kts | 28° |
| 2026-04-30 13:29 | 0.05185 | -32.08469 | 30878 ft | 506 kts | 28° |
| 2026-04-30 13:31 | 0.20697 | -32.00266 | 30876 ft | 506 kts | 28° |
| 2026-04-30 13:32 | 0.36230 | -31.92050 | 30875 ft | 505 kts | 28° |
| 2026-04-30 13:33 | 0.48649 | -31.85482 | 30876 ft | 505 kts | 28° |
| 2026-04-30 13:34 | 0.57921 | -31.80578 | 30877 ft | 505 kts | 28° |
| 2026-04-30 13:35 | 0.70351 | -31.74003 | 30876 ft | 506 kts | 28° |
| 2026-04-30 13:36 | 0.82781 | -31.67427 | 30878 ft | 508 kts | 28° |
| 2026-04-30 13:36 | 0.92155 | -31.62469 | 30876 ft | 508 kts | 28° |
| 2026-04-30 13:37 | 1.01526 | -31.57511 | 30880 ft | 508 kts | 28° |
| 2026-04-30 13:38 | 1.10846 | -31.52580 | 30882 ft | 507 kts | 28° |
| 2026-04-30 13:39 | 1.23305 | -31.45987 | 30881 ft | 507 kts | 28° |
| 2026-04-30 13:40 | 1.32654 | -31.41040 | 30879 ft | 507 kts | 28° |
| 2026-04-30 13:40 | 1.38842 | -31.37766 | 30880 ft | 507 kts | 28° |
| 2026-04-30 13:41 | 1.45073 | -31.34468 | 30880 ft | 507 kts | 28° |
| 2026-04-30 13:41 | 1.51304 | -31.31170 | 30880 ft | 507 kts | 28° |
| 2026-04-30 13:42 | 1.57535 | -31.27872 | 30882 ft | 507 kts | 28° |
| 2026-04-30 13:42 | 1.66879 | -31.22926 | 30885 ft | 506 kts | 28° |
| 2026-04-30 13:43 | 1.73062 | -31.19652 | 30886 ft | 506 kts | 28° |
| 2026-04-30 13:43 | 1.79288 | -31.16355 | 30885 ft | 506 kts | 28° |
| 2026-04-30 13:44 | 1.85512 | -31.13060 | 30881 ft | 506 kts | 28° |
| 2026-04-30 13:44 | 1.91735 | -31.09765 | 30882 ft | 506 kts | 28° |
| 2026-04-30 13:45 | 2.01026 | -31.04844 | 30889 ft | 506 kts | 28° |
| 2026-04-30 13:46 | 2.07243 | -31.01551 | 30886 ft | 505 kts | 28° |
| 2026-04-30 13:46 | 2.13450 | -30.98263 | 30887 ft | 505 kts | 28° |
| 2026-04-30 13:47 | 2.19655 | -30.94975 | 30889 ft | 504 kts | 28° |
| 2026-04-30 13:47 | 2.25809 | -30.91714 | 30887 ft | 503 kts | 28° |
| 2026-04-30 13:48 | 2.31994 | -30.88439 | 30888 ft | 503 kts | 28° |
| 2026-04-30 13:48 | 2.38175 | -30.85166 | 30887 ft | 502 kts | 28° |
| 2026-04-30 13:49 | 2.44350 | -30.81893 | 30887 ft | 502 kts | 28° |
| 2026-04-30 13:49 | 2.50523 | -30.78621 | 30893 ft | 502 kts | 28° |
| 2026-04-30 13:50 | 2.56658 | -30.75369 | 30893 ft | 502 kts | 28° |
| 2026-04-30 13:50 | 2.65924 | -30.70457 | 30893 ft | 503 kts | 28° |
| 2026-04-30 13:51 | 2.72108 | -30.67178 | 30895 ft | 503 kts | 28° |
| 2026-04-30 13:51 | 2.78293 | -30.63899 | 30893 ft | 503 kts | 28° |
| 2026-04-30 13:52 | 2.84440 | -30.60639 | 30894 ft | 503 kts | 28° |
| 2026-04-30 13:52 | 2.90627 | -30.57357 | 30896 ft | 503 kts | 28° |
| 2026-04-30 13:53 | 2.96814 | -30.54075 | 30894 ft | 503 kts | 28° |
| 2026-04-30 13:53 | 3.03002 | -30.50792 | 30896 ft | 503 kts | 28° |
| 2026-04-30 13:54 | 3.09144 | -30.47533 | 30894 ft | 503 kts | 28° |
| 2026-04-30 13:54 | 3.15319 | -30.44257 | 30896 ft | 503 kts | 28° |
| 2026-04-30 13:55 | 3.21499 | -30.40977 | 30899 ft | 503 kts | 28° |
| 2026-04-30 13:55 | 3.27678 | -30.37697 | 30902 ft | 502 kts | 28° |
| 2026-04-30 13:56 | 3.33848 | -30.34421 | 30900 ft | 502 kts | 28° |
| 2026-04-30 13:56 | 3.39986 | -30.31162 | 30901 ft | 502 kts | 28° |
| 2026-04-30 13:57 | 3.46149 | -30.27889 | 30899 ft | 501 kts | 28° |
| 2026-04-30 13:57 | 3.52311 | -30.24616 | 30899 ft | 501 kts | 28° |
| 2026-04-30 13:58 | 3.61516 | -30.19726 | 30899 ft | 502 kts | 28° |
| 2026-04-30 13:59 | 3.67678 | -30.16452 | 30902 ft | 502 kts | 28° |
| 2026-04-30 13:59 | 3.73844 | -30.13175 | 30902 ft | 502 kts | 28° |
| 2026-04-30 14:00 | 3.80011 | -30.09897 | 30903 ft | 502 kts | 28° |
| 2026-04-30 14:00 | 3.89251 | -30.04985 | 30903 ft | 501 kts | 28° |
| 2026-04-30 14:01 | 3.95357 | -30.01737 | 30903 ft | 500 kts | 28° |
| 2026-04-30 14:01 | 4.01506 | -29.98466 | 30907 ft | 500 kts | 28° |
| 2026-04-30 14:02 | 4.07653 | -29.95196 | 30907 ft | 500 kts | 28° |
| 2026-04-30 14:02 | 4.13798 | -29.91923 | 30908 ft | 500 kts | 28° |
| 2026-04-30 14:03 | 4.19905 | -29.88669 | 30908 ft | 501 kts | 28° |
| 2026-04-30 14:03 | 4.26058 | -29.85390 | 30910 ft | 501 kts | 28° |
| 2026-04-30 14:04 | 4.32210 | -29.82111 | 30906 ft | 501 kts | 28° |
| 2026-04-30 14:04 | 4.38366 | -29.78829 | 30910 ft | 501 kts | 28° |
| 2026-04-30 14:05 | 4.44480 | -29.75569 | 30907 ft | 501 kts | 28° |
| 2026-04-30 14:05 | 4.50636 | -29.72286 | 30912 ft | 501 kts | 28° |
| 2026-04-30 14:06 | 4.59867 | -29.67363 | 30914 ft | 501 kts | 28° |
| 2026-04-30 14:07 | 4.69061 | -29.62457 | 30913 ft | 501 kts | 28° |
| 2026-04-30 14:08 | 4.78302 | -29.57524 | 30917 ft | 502 kts | 28° |
| 2026-04-30 14:08 | 4.87562 | -29.52580 | 30917 ft | 503 kts | 28° |
| 2026-04-30 14:09 | 4.93730 | -29.49287 | 30916 ft | 502 kts | 28° |
| 2026-04-30 14:10 | 5.02939 | -29.44367 | 30919 ft | 502 kts | 28° |
| 2026-04-30 14:10 | 5.09102 | -29.41074 | 30921 ft | 502 kts | 28° |
| 2026-04-30 14:11 | 5.15270 | -29.37778 | 30918 ft | 502 kts | 28° |
| 2026-04-30 14:11 | 5.21440 | -29.34480 | 30920 ft | 503 kts | 28° |
| 2026-04-30 14:12 | 5.27610 | -29.31181 | 30921 ft | 503 kts | 28° |
| 2026-04-30 14:12 | 5.33740 | -29.27902 | 30922 ft | 503 kts | 28° |
| 2026-04-30 14:13 | 5.39916 | -29.24599 | 30923 ft | 503 kts | 28° |
| 2026-04-30 14:13 | 5.46090 | -29.21296 | 30923 ft | 503 kts | 28° |
| 2026-04-30 14:14 | 5.52260 | -29.17994 | 30924 ft | 503 kts | 28° |
| 2026-04-30 14:14 | 5.58428 | -29.14692 | 30925 ft | 503 kts | 28° |
| 2026-04-30 14:15 | 5.64558 | -29.11410 | 30931 ft | 503 kts | 28° |
| 2026-04-30 14:15 | 5.70733 | -29.08102 | 30928 ft | 503 kts | 28° |
| 2026-04-30 14:16 | 5.76911 | -29.04793 | 30927 ft | 504 kts | 28° |
| 2026-04-30 14:16 | 5.83096 | -29.01479 | 30930 ft | 504 kts | 28° |
| 2026-04-30 14:17 | 5.89250 | -28.98181 | 30936 ft | 505 kts | 28° |
| 2026-04-30 14:17 | 5.95444 | -28.94860 | 30934 ft | 505 kts | 28° |
| 2026-04-30 14:18 | 6.01636 | -28.91540 | 30935 ft | 504 kts | 27° |
| 2026-04-30 14:18 | 6.10920 | -28.86560 | 30938 ft | 504 kts | 28° |
| 2026-04-30 14:19 | 6.20161 | -28.81601 | 30938 ft | 504 kts | 28° |
| 2026-04-30 14:20 | 6.26344 | -28.78282 | 30939 ft | 504 kts | 27° |
| 2026-04-30 14:20 | 6.35625 | -28.73298 | 30939 ft | 504 kts | 28° |
| 2026-04-30 14:21 | 6.41811 | -28.69975 | 30941 ft | 504 kts | 27° |
| 2026-04-30 14:22 | 6.51046 | -28.65012 | 30947 ft | 504 kts | 28° |
| 2026-04-30 14:22 | 6.60320 | -28.60027 | 30945 ft | 504 kts | 28° |
| 2026-04-30 14:23 | 6.72635 | -28.53403 | 30948 ft | 504 kts | 27° |
| 2026-04-30 14:24 | 6.81903 | -28.48416 | 30952 ft | 504 kts | 27° |
| 2026-04-30 14:25 | 6.94279 | -28.41752 | 30954 ft | 504 kts | 27° |
| 2026-04-30 14:26 | 7.03524 | -28.36772 | 30953 ft | 505 kts | 27° |
| 2026-04-30 14:27 | 7.12819 | -28.31762 | 30955 ft | 506 kts | 27° |
| 2026-04-30 14:27 | 7.19026 | -28.28416 | 30952 ft | 506 kts | 27° |
| 2026-04-30 14:28 | 7.28299 | -28.23413 | 30959 ft | 506 kts | 27° |
| 2026-04-30 14:28 | 7.34511 | -28.20062 | 30961 ft | 506 kts | 27° |
| 2026-04-30 14:29 | 7.45897 | -28.13919 | 30959 ft | 507 kts | 27° |
| 2026-04-30 14:31 | 7.62477 | -28.04960 | 30962 ft | 508 kts | 26° |
| 2026-04-30 14:31 | 7.71808 | -27.99918 | 30962 ft | 507 kts | 27° |
| 2026-04-30 14:32 | 7.81093 | -27.94894 | 30966 ft | 508 kts | 27° |
| 2026-04-30 14:33 | 7.87326 | -27.91522 | 30965 ft | 508 kts | 27° |
| 2026-04-30 14:33 | 7.96682 | -27.86459 | 30969 ft | 509 kts | 27° |
| 2026-04-30 14:34 | 8.02875 | -27.83105 | 30965 ft | 509 kts | 26° |
| 2026-04-30 14:34 | 8.09114 | -27.79725 | 30965 ft | 509 kts | 27° |
| 2026-04-30 14:35 | 8.18460 | -27.74658 | 30970 ft | 508 kts | 26° |
| 2026-04-30 14:36 | 8.24691 | -27.71280 | 30972 ft | 508 kts | 27° |
| 2026-04-30 14:36 | 8.30917 | -27.67903 | 30976 ft | 508 kts | 27° |
| 2026-04-30 14:37 | 8.37096 | -27.64550 | 30979 ft | 508 kts | 27° |
| 2026-04-30 14:37 | 8.43318 | -27.61172 | 30979 ft | 508 kts | 26° |
| 2026-04-30 14:38 | 8.49544 | -27.57791 | 30979 ft | 508 kts | 27° |
| 2026-04-30 14:38 | 8.55774 | -27.54407 | 30977 ft | 508 kts | 27° |
| 2026-04-30 14:39 | 8.61963 | -27.51043 | 30975 ft | 509 kts | 27° |
| 2026-04-30 14:39 | 8.68192 | -27.47657 | 30979 ft | 509 kts | 26° |
| 2026-04-30 14:40 | 8.77537 | -27.42574 | 30984 ft | 508 kts | 27° |
| 2026-04-30 14:40 | 8.83715 | -27.39211 | 30982 ft | 508 kts | 27° |
| 2026-04-30 14:41 | 8.89931 | -27.35827 | 30981 ft | 507 kts | 26° |
| 2026-04-30 14:41 | 8.96144 | -27.32443 | 30981 ft | 507 kts | 27° |
| 2026-04-30 14:42 | 9.02358 | -27.29057 | 30981 ft | 507 kts | 27° |
| 2026-04-30 14:42 | 9.08569 | -27.25669 | 30981 ft | 507 kts | 27° |
| 2026-04-30 14:43 | 9.14737 | -27.22302 | 30983 ft | 507 kts | 27° |
| 2026-04-30 14:43 | 9.20940 | -27.18916 | 30989 ft | 506 kts | 27° |
| 2026-04-30 14:44 | 9.27134 | -27.15534 | 30987 ft | 506 kts | 26° |
| 2026-04-30 14:44 | 9.33325 | -27.12151 | 30991 ft | 506 kts | 26° |
| 2026-04-30 14:45 | 9.39514 | -27.08766 | 30992 ft | 505 kts | 26° |
| 2026-04-30 14:45 | 9.45662 | -27.05405 | 30998 ft | 505 kts | 27° |
| 2026-04-30 14:46 | 9.51850 | -27.02020 | 30992 ft | 505 kts | 26° |
| 2026-04-30 14:46 | 9.58036 | -26.98635 | 30998 ft | 505 kts | 27° |
| 2026-04-30 14:47 | 9.64220 | -26.95249 | 30996 ft | 505 kts | 26° |
| 2026-04-30 14:47 | 9.70400 | -26.91863 | 30998 ft | 505 kts | 27° |
| 2026-04-30 14:48 | 9.76540 | -26.88498 | 30997 ft | 505 kts | 26° |
| 2026-04-30 14:48 | 9.82720 | -26.85110 | 30998 ft | 505 kts | 27° |
| 2026-04-30 14:49 | 9.88901 | -26.81721 | 31000 ft | 505 kts | 27° |
| 2026-04-30 14:49 | 9.95076 | -26.78333 | 31000 ft | 505 kts | 26° |
| 2026-04-30 14:50 | 10.04300 | -26.73269 | 31001 ft | 505 kts | 26° |
| 2026-04-30 14:51 | 10.13562 | -26.68181 | 31005 ft | 505 kts | 27° |
| 2026-04-30 14:52 | 10.22820 | -26.63092 | 31000 ft | 504 kts | 27° |
| 2026-04-30 14:52 | 10.32023 | -26.58029 | 31006 ft | 503 kts | 26° |
| 2026-04-30 14:53 | 10.41256 | -26.52946 | 31006 ft | 503 kts | 27° |
| 2026-04-30 14:54 | 10.53516 | -26.46192 | 31006 ft | 503 kts | 27° |
| 2026-04-30 14:55 | 10.62741 | -26.41107 | 31006 ft | 503 kts | 26° |
| 2026-04-30 14:56 | 10.75034 | -26.34324 | 31008 ft | 503 kts | 26° |
| 2026-04-30 14:57 | 10.84214 | -26.29255 | 31015 ft | 503 kts | 26° |
| 2026-04-30 14:58 | 10.96523 | -26.22451 | 31015 ft | 503 kts | 27° |
| 2026-04-30 14:58 | 11.05709 | -26.17370 | 31010 ft | 503 kts | 27° |
| 2026-04-30 15:00 | 11.21072 | -26.08865 | 31018 ft | 502 kts | 27° |
| 2026-04-30 15:01 | 11.33309 | -26.02081 | 31021 ft | 502 kts | 27° |
| 2026-04-30 15:01 | 11.42506 | -25.96979 | 31019 ft | 502 kts | 27° |
| 2026-04-30 15:02 | 11.48637 | -25.93576 | 31017 ft | 501 kts | 27° |
| 2026-04-30 15:03 | 11.63907 | -25.85091 | 31019 ft | 501 kts | 27° |
| 2026-04-30 15:04 | 11.79200 | -25.76582 | 31020 ft | 501 kts | 27° |
| 2026-04-30 15:06 | 11.94457 | -25.68103 | 31020 ft | 501 kts | 27° |
| 2026-04-30 15:07 | 12.06686 | -25.61300 | 31018 ft | 500 kts | 27° |
| 2026-04-30 15:08 | 12.18848 | -25.54526 | 31021 ft | 499 kts | 27° |
| 2026-04-30 15:09 | 12.34085 | -25.46029 | 31020 ft | 499 kts | 27° |
| 2026-04-30 15:10 | 12.46221 | -25.39254 | 31020 ft | 499 kts | 27° |
| 2026-04-30 15:11 | 12.64450 | -25.29063 | 31021 ft | 499 kts | 26° |
| 2026-04-30 15:13 | 12.79671 | -25.20540 | 31031 ft | 499 kts | 27° |
| 2026-04-30 15:14 | 13.00929 | -25.08618 | 31039 ft | 498 kts | 26° |
| 2026-04-30 15:16 | 13.16192 | -25.00044 | 31842 ft | 505 kts | 26° |
| 2026-04-30 15:17 | 13.28525 | -24.93106 | 32945 ft | 506 kts | 26° |
| 2026-04-30 15:18 | 13.43962 | -24.84411 | 34220 ft | 508 kts | 26° |
| 2026-04-30 15:19 | 13.53236 | -24.79181 | 34954 ft | 507 kts | 26° |
| 2026-04-30 17:39 | 30.03826 | -13.94059 | 35126 ft | 465 kts | 25° |
| 2026-04-30 17:42 | 30.30627 | -13.73184 | 35114 ft | 464 kts | 25° |
| 2026-04-30 17:43 | 30.43914 | -13.62784 | 35124 ft | 462 kts | 25° |
| 2026-04-30 17:44 | 30.59851 | -13.50253 | 35125 ft | 463 kts | 25° |
| 2026-04-30 17:47 | 30.83728 | -13.31350 | 35150 ft | 461 kts | 26° |
| 2026-04-30 17:48 | 31.02220 | -13.16633 | 35129 ft | 461 kts | 26° |
| 2026-04-30 17:50 | 31.23338 | -12.99738 | 35124 ft | 460 kts | 26° |
| 2026-04-30 17:52 | 31.39139 | -12.87037 | 35121 ft | 459 kts | 26° |